Time;durP1;ratioP1;P1;durP2;ratioP2;P2;SDS_P1;SDS_P2;PMS_P1;PMS_P2;Temp;Humidity;BMP_temperature;BMP_pressure;BME280_temperature;BME280_humidity;BME280_pressure;Samples;Min_cycle;Max_cycle;Signal;HPM_P1;HPM_P2
2021/06/12 00:02:01;;;;;;;;;12.25;12.25;;;;;;;;3568423;39;112658;-79
2021/06/12 00:04:27;;;;;;;;;13.50;11.25;;;;;;;;3572114;39;112183;-79
2021/06/12 00:06:57;;;;;;;;;12.00;11.75;;;;;;;;3568940;39;113099;-78
2021/06/12 00:09:23;;;;;;;;;14.00;11.00;;;;;;;;3567191;39;113004;-79
2021/06/12 00:11:50;;;;;;;;;12.50;11.00;;;;;;;;3569317;39;111904;-78
2021/06/12 00:14:17;;;;;;;;;16.75;14.00;;;;;;;;3569276;39;113120;-80
2021/06/12 00:16:43;;;;;;;;;13.50;12.00;;;;;;;;3568456;39;114167;-80
2021/06/12 00:19:09;;;;;;;;;11.25;11.25;;;;;;;;3568571;39;111759;-78
2021/06/12 00:21:36;;;;;;;;;12.00;11.75;;;;;;;;3570308;39;113268;-78
2021/06/12 00:24:02;;;;;;;;;10.00;10.00;;;;;;;;3570396;39;113818;-78
2021/06/12 00:26:28;;;;;;;;;14.00;11.25;;;;;;;;3570065;39;113136;-78
2021/06/12 00:28:56;;;;;;;;;12.00;12.00;;;;;;;;3568583;39;113871;-78
2021/06/12 00:31:22;;;;;;;;;13.00;11.00;;;;;;;;3568841;39;112451;-78
2021/06/12 00:33:48;;;;;;;;;11.50;11.50;;;;;;;;3568337;39;113251;-78
2021/06/12 00:36:14;;;;;;;;;13.00;12.00;;;;;;;;3568318;39;113850;-78
2021/06/12 00:38:40;;;;;;;;;11.25;11.00;;;;;;;;3569777;39;112154;-78
2021/06/12 00:41:07;;;;;;;;;10.75;10.75;;;;;;;;3568488;39;113259;-78
2021/06/12 00:43:34;;;;;;;;;11.75;11.00;;;;;;;;3569524;39;113989;-78
2021/06/12 00:46:01;;;;;;;;;13.25;11.00;;;;;;;;3570928;39;111888;-78
2021/06/12 00:48:28;;;;;;;;;9.00;9.00;;;;;;;;3568467;39;113128;-79
2021/06/12 00:50:54;;;;;;;;;12.00;12.00;;;;;;;;3568718;39;111906;-78
2021/06/12 00:53:36;;;;;;;;;16.50;14.50;;;;;;;;3569178;39;113238;-79
2021/06/12 00:56:02;;;;;;;;;17.00;13.00;;;;;;;;3567748;39;113632;-79
2021/06/12 00:58:29;;;;;;;;;11.25;11.25;;;;;;;;3569860;39;111889;-79
2021/06/12 01:00:55;;;;;;;;;12.00;12.00;;;;;;;;3568740;39;113230;-79
2021/06/12 01:03:22;;;;;;;;;15.50;13.25;;;;;;;;3568611;39;114587;-79
2021/06/12 01:05:49;;;;;;;;;11.75;11.75;;;;;;;;3568783;39;111844;-79
2021/06/12 01:08:15;;;;;;;;;13.25;11.75;;;;;;;;3570945;39;113950;-79
2021/06/12 01:10:41;;;;;;;;;13.50;12.75;;;;;;;;3569619;39;113011;-78
2021/06/12 01:13:13;;;;;;;;;13.00;11.75;;;;;;;;3567881;39;113297;-78
2021/06/12 01:15:49;;;;;;;;;11.75;11.00;;;;;;;;3569044;39;113915;-78
2021/06/12 01:18:17;;;;;;;;;12.50;12.50;;;;;;;;3568532;39;111975;-79
2021/06/12 01:20:58;;;;;;;;;12.25;12.25;;;;;;;;3569348;39;113701;-78
2021/06/12 01:23:42;;;;;;;;;12.75;10.25;;;;;;;;3568890;39;112894;-78
2021/06/12 01:26:12;;;;;;;;;16.25;12.00;;;;;;;;3567866;39;111976;-77
2021/06/12 01:28:52;;;;;;;;;12.00;12.00;;;;;;;;3568681;39;113250;-78
2021/06/12 01:31:22;;;;;;;;;10.50;10.50;;;;;;;;3569754;39;114149;-76
2021/06/12 01:33:48;;;;;;;;;16.25;14.75;;;;;;;;3567997;39;114096;-77
2021/06/12 01:36:14;;;;;;;;;12.50;12.00;;;;;;;;3567876;39;114217;-77
2021/06/12 01:38:44;;;;;;;;;13.00;11.00;;;;;;;;3569500;39;113031;-77
2021/06/12 01:41:12;;;;;;;;;11.75;11.75;;;;;;;;3568240;39;113265;-77
2021/06/12 01:43:39;;;;;;;;;12.00;12.00;;;;;;;;3569072;39;113854;-77
2021/06/12 01:46:07;;;;;;;;;12.00;11.00;;;;;;;;3567699;39;112178;-77
2021/06/12 01:48:34;;;;;;;;;14.25;11.75;;;;;;;;3569809;39;113199;-77
2021/06/12 01:51:03;;;;;;;;;17.00;16.00;;;;;;;;3567534;39;115358;-77
2021/06/12 01:53:31;;;;;;;;;13.50;13.50;;;;;;;;3572390;39;112028;-77
2021/06/12 01:55:58;;;;;;;;;12.75;11.00;;;;;;;;3567213;39;113879;-77
2021/06/12 01:58:24;;;;;;;;;14.75;12.50;;;;;;;;3569092;39;112199;-77
2021/06/12 02:00:51;;;;;;;;;13.25;12.00;;;;;;;;3568425;39;113230;-77
2021/06/12 02:03:18;;;;;;;;;17.75;12.75;;;;;;;;3567340;39;113023;-78
2021/06/12 02:05:46;;;;;;;;;13.00;12.75;;;;;;;;3568394;39;111856;-78
2021/06/12 02:08:14;;;;;;;;;11.50;10.50;;;;;;;;3568079;39;113337;-78
2021/06/12 02:10:40;;;;;;;;;12.00;12.00;;;;;;;;3568742;39;114020;-77
2021/06/12 02:13:08;;;;;;;;;12.75;11.75;;;;;;;;3570318;39;112246;-78
2021/06/12 02:15:35;;;;;;;;;11.75;11.75;;;;;;;;3568770;39;114093;-78
2021/06/12 02:18:03;;;;;;;;;5.25;5.25;;;;;;;;3567717;39;111894;-78
2021/06/12 02:20:30;;;;;;;;;12.25;11.75;;;;;;;;3569360;39;113598;-77
2021/06/12 02:22:59;;;;;;;;;12.75;9.75;;;;;;;;3567377;39;113888;-78
2021/06/12 02:25:26;;;;;;;;;15.00;13.00;;;;;;;;3568643;39;111806;-78
2021/06/12 02:27:54;;;;;;;;;13.25;12.00;;;;;;;;3568049;39;114478;-77
2021/06/12 02:30:22;;;;;;;;;9.75;9.75;;;;;;;;3568014;39;114118;-78
2021/06/12 02:32:51;;;;;;;;;15.50;13.25;;;;;;;;3568472;39;111791;-78
2021/06/12 02:35:17;;;;;;;;;12.00;12.00;;;;;;;;3569134;39;113222;-78
2021/06/12 02:37:44;;;;;;;;;12.00;11.00;;;;;;;;3568570;39;112517;-78
2021/06/12 02:40:11;;;;;;;;;11.00;11.00;;;;;;;;3568113;39;113138;-78
2021/06/12 02:42:38;;;;;;;;;12.50;12.25;;;;;;;;3570092;39;114270;-78
2021/06/12 02:45:06;;;;;;;;;12.00;12.00;;;;;;;;3568678;39;112801;-78
2021/06/12 02:47:35;;;;;;;;;13.25;10.75;;;;;;;;3568875;39;113222;-78
2021/06/12 02:50:01;;;;;;;;;12.50;11.50;;;;;;;;3569956;39;114236;-78
2021/06/12 02:52:29;;;;;;;;;12.00;9.50;;;;;;;;3569067;39;111871;-78
2021/06/12 02:54:56;;;;;;;;;10.25;8.75;;;;;;;;3569890;39;113371;-80
2021/06/12 02:57:26;;;;;;;;;10.25;10.25;;;;;;;;3571595;39;113990;-76
2021/06/12 02:59:53;;;;;;;;;12.75;10.75;;;;;;;;3569937;39;113261;-79
2021/06/12 03:02:19;;;;;;;;;11.50;11.50;;;;;;;;3569010;39;114211;-79
2021/06/12 03:04:45;;;;;;;;;16.00;13.00;;;;;;;;3568890;39;111809;-82
2021/06/12 03:07:13;;;;;;;;;12.00;12.00;;;;;;;;3568878;39;113223;-82
2021/06/12 03:09:39;;;;;;;;;12.75;12.25;;;;;;;;3569866;39;113797;-81
2021/06/12 03:12:06;;;;;;;;;11.00;10.25;;;;;;;;3568885;39;111912;-82
2021/06/12 03:14:34;;;;;;;;;14.00;11.75;;;;;;;;3568791;39;113288;-82
2021/06/12 03:17:00;;;;;;;;;9.75;9.00;;;;;;;;3569729;39;114715;-82
2021/06/12 03:19:27;;;;;;;;;14.50;12.00;;;;;;;;3573305;39;111991;-82
2021/06/12 03:21:53;;;;;;;;;15.00;10.00;;;;;;;;3566989;39;112846;-82
2021/06/12 03:24:20;;;;;;;;;15.25;14.00;;;;;;;;3570986;39;111886;-82
2021/06/12 03:26:46;;;;;;;;;13.00;11.75;;;;;;;;3569197;39;113358;-82
2021/06/12 03:29:13;;;;;;;;;15.75;13.75;;;;;;;;3569474;39;113845;-83
2021/06/12 03:31:41;;;;;;;;;13.25;11.25;;;;;;;;3566946;39;111973;-80
2021/06/12 03:34:07;;;;;;;;;14.50;13.50;;;;;;;;3568395;39;113407;-79
2021/06/12 03:36:33;;;;;;;;;14.25;12.00;;;;;;;;3569677;39;114549;-81
2021/06/12 03:38:59;;;;;;;;;15.00;12.00;;;;;;;;3568668;39;111858;-80
2021/06/12 03:41:26;;;;;;;;;11.25;11.25;;;;;;;;3572159;39;113345;-82
2021/06/12 03:43:52;;;;;;;;;14.75;12.75;;;;;;;;3569385;39;111901;-82
2021/06/12 03:46:19;;;;;;;;;15.00;11.75;;;;;;;;3568346;39;113247;-81
2021/06/12 03:48:47;;;;;;;;;11.50;11.25;;;;;;;;3568278;39;113880;-82
2021/06/12 03:51:14;;;;;;;;;12.75;10.75;;;;;;;;3569085;39;111819;-80
2021/06/12 03:53:47;;;;;;;;;14.50;10.50;;;;;;;;3568459;39;113767;-81
2021/06/12 03:56:13;;;;;;;;;15.50;14.25;;;;;;;;3569100;39;113996;-80
2021/06/12 03:58:40;;;;;;;;;9.75;8.75;;;;;;;;3568411;39;111886;-82
2021/06/12 04:01:06;;;;;;;;;16.25;14.75;;;;;;;;3569275;39;113240;-82
2021/06/12 04:03:32;;;;;;;;;14.75;14.25;;;;;;;;3571911;39;114524;-80
2021/06/12 04:06:00;;;;;;;;;15.25;13.50;;;;;;;;3568495;39;113146;-79
2021/06/12 04:08:26;;;;;;;;;13.00;12.50;;;;;;;;3568342;39;113951;-79
2021/06/12 04:10:52;;;;;;;;;14.50;14.25;;;;;;;;3569639;39;112485;-79
2021/06/12 04:13:18;;;;;;;;;15.00;14.00;;;;;;;;3569400;39;113672;-80
2021/06/12 04:15:46;;;;;;;;;15.50;12.50;;;;;;;;3567925;39;114025;-79
2021/06/12 04:18:12;;;;;;;;;15.25;14.50;;;;;;;;3568609;39;111867;-80
2021/06/12 04:20:38;;;;;;;;;15.25;14.75;;;;;;;;3569000;39;113745;-81
2021/06/12 04:23:07;;;;;;;;;9.75;8.00;;;;;;;;3571676;39;114231;-82
2021/06/12 04:25:33;;;;;;;;;15.00;15.00;;;;;;;;3568740;39;113732;-79
2021/06/12 04:27:59;;;;;;;;;15.50;13.75;;;;;;;;3569254;39;114247;-81
2021/06/12 04:30:25;;;;;;;;;14.25;13.25;;;;;;;;3567854;39;112239;-83
2021/06/12 04:32:52;;;;;;;;;13.75;13.25;;;;;;;;3569839;39;113173;-86
2021/06/12 04:35:18;;;;;;;;;13.00;13.00;;;;;;;;3568943;39;113988;-84
2021/06/12 04:37:45;;;;;;;;;15.00;14.00;;;;;;;;3569153;39;112254;-84
2021/06/12 04:40:14;;;;;;;;;13.00;13.00;;;;;;;;3571505;39;113280;-80
2021/06/12 04:42:40;;;;;;;;;12.00;10.50;;;;;;;;3568300;39;113933;-80
2021/06/12 04:45:08;;;;;;;;;11.00;11.00;;;;;;;;3573001;39;111814;-81
2021/06/12 04:47:34;;;;;;;;;14.00;12.50;;;;;;;;3567902;39;113880;-83
2021/06/12 04:50:00;;;;;;;;;14.00;13.50;;;;;;;;3570436;39;112013;-83
2021/06/12 04:52:26;;;;;;;;;11.00;11.00;;;;;;;;3569012;39;113658;-87
2021/06/12 04:54:52;;;;;;;;;13.00;13.00;;;;;;;;3569481;39;114854;-85
2021/06/12 04:57:20;;;;;;;;;13.75;13.75;;;;;;;;3569989;39;111620;-82
2021/06/12 04:59:47;;;;;;;;;11.50;11.50;;;;;;;;3569961;39;113344;-85
2021/06/12 05:02:14;;;;;;;;;14.50;13.25;;;;;;;;3569114;39;114576;-84
2021/06/12 05:04:41;;;;;;;;;15.00;14.00;;;;;;;;3568866;39;111999;-87
2021/06/12 05:07:07;;;;;;;;;14.50;13.00;;;;;;;;3572738;39;113231;-84
2021/06/12 05:09:33;;;;;;;;;16.25;13.25;;;;;;;;3568440;39;111962;-79
2021/06/12 05:11:59;;;;;;;;;11.50;11.50;;;;;;;;3570108;39;113802;-80
2021/06/12 05:14:27;;;;;;;;;11.25;10.75;;;;;;;;3568584;39;113886;-82
2021/06/12 05:16:53;;;;;;;;;15.50;15.00;;;;;;;;3569659;39;112179;-82
2021/06/12 05:19:19;;;;;;;;;15.00;12.75;;;;;;;;3569302;39;113682;-78
2021/06/12 05:21:46;;;;;;;;;13.50;11.75;;;;;;;;3568781;39;113749;-84
2021/06/12 05:24:13;;;;;;;;;10.75;10.00;;;;;;;;3569909;39;113360;-84
2021/06/12 05:26:39;;;;;;;;;11.00;11.00;;;;;;;;3568807;39;113350;-80
2021/06/12 05:29:05;;;;;;;;;12.75;10.00;;;;;;;;3571911;39;113857;-78
2021/06/12 05:31:32;;;;;;;;;10.25;8.50;;;;;;;;3569421;39;113180;-78
2021/06/12 05:33:59;;;;;;;;;12.75;12.25;;;;;;;;3567056;39;113781;-79
2021/06/12 05:36:25;;;;;;;;;13.00;10.75;;;;;;;;3565152;39;113052;-78
2021/06/12 05:38:51;;;;;;;;;12.25;11.75;;;;;;;;3568568;39;113735;-79
2021/06/12 05:41:17;;;;;;;;;13.00;11.25;;;;;;;;3568850;39;114124;-80
2021/06/12 05:43:43;;;;;;;;;13.00;12.00;;;;;;;;3569858;39;112398;-77
2021/06/12 05:46:09;;;;;;;;;13.50;10.75;;;;;;;;3569750;39;113028;-77
2021/06/12 05:48:37;;;;;;;;;15.00;11.25;;;;;;;;3568307;39;113990;-79
2021/06/12 05:51:03;;;;;;;;;14.25;11.75;;;;;;;;3571455;39;112261;-81
2021/06/12 05:53:29;;;;;;;;;14.75;13.75;;;;;;;;3570075;39;114119;-80
2021/06/12 05:55:56;;;;;;;;;16.75;15.50;;;;;;;;3569687;39;112009;-80
2021/06/12 05:58:22;;;;;;;;;16.50;15.25;;;;;;;;3570204;39;112848;-82
2021/06/12 06:00:48;;;;;;;;;15.25;15.00;;;;;;;;3569815;39;113877;-80
2021/06/12 06:03:14;;;;;;;;;15.00;14.00;;;;;;;;3567399;39;112015;-82
2021/06/12 06:05:42;;;;;;;;;14.50;14.25;;;;;;;;3567800;39;113965;-80
2021/06/12 06:08:08;;;;;;;;;18.75;15.50;;;;;;;;3566931;39;113964;-81
2021/06/12 06:10:34;;;;;;;;;17.25;15.00;;;;;;;;3567698;39;111879;-83
2021/06/12 06:13:01;;;;;;;;;13.25;11.25;;;;;;;;3571216;39;113358;-80
2021/06/12 06:15:27;;;;;;;;;15.00;14.00;;;;;;;;3569919;39;112209;-81
2021/06/12 06:17:53;;;;;;;;;16.25;13.00;;;;;;;;3569065;39;113285;-85
2021/06/12 06:20:19;;;;;;;;;13.25;12.50;;;;;;;;3569534;39;113996;-80
2021/06/12 06:22:46;;;;;;;;;14.00;12.50;;;;;;;;3569959;39;111942;-85
2021/06/12 06:25:13;;;;;;;;;15.75;14.75;;;;;;;;3570497;39;113666;-82
2021/06/12 06:27:39;;;;;;;;;14.50;14.50;;;;;;;;3570007;39;114359;-82
2021/06/12 06:30:06;;;;;;;;;17.00;14.50;;;;;;;;3570030;39;112461;-83
2021/06/12 06:32:32;;;;;;;;;15.00;14.00;;;;;;;;3569551;39;113585;-85
2021/06/12 06:34:58;;;;;;;;;12.00;12.00;;;;;;;;3569246;39;111935;-84
2021/06/12 06:37:24;;;;;;;;;17.00;14.75;;;;;;;;3570026;39;113099;-85
2021/06/12 06:39:52;;;;;;;;;17.75;12.75;;;;;;;;3569696;39;114090;-79
2021/06/12 06:42:18;;;;;;;;;15.00;13.75;;;;;;;;3570567;39;112073;-76
2021/06/12 06:44:44;;;;;;;;;18.00;16.25;;;;;;;;3569719;39;114193;-77
2021/06/12 06:47:10;;;;;;;;;12.75;12.00;;;;;;;;3570043;39;113843;-76
2021/06/12 06:49:36;;;;;;;;;17.50;17.50;;;;;;;;3570353;39;112568;-81
2021/06/12 06:52:03;;;;;;;;;18.50;15.75;;;;;;;;3567996;39;113737;-82
2021/06/12 06:54:29;;;;;;;;;16.75;15.25;;;;;;;;3570345;39;113922;-78
2021/06/12 06:56:56;;;;;;;;;19.75;13.50;;;;;;;;3568892;39;113302;-84
2021/06/12 06:59:22;;;;;;;;;16.50;15.00;;;;;;;;3569598;39;113818;-90
2021/06/12 07:01:48;;;;;;;;;20.25;14.50;;;;;;;;3569145;39;111989;-82
2021/06/12 07:04:15;;;;;;;;;30.25;27.00;;;;;;;;3566716;39;113342;-83
2021/06/12 07:06:41;;;;;;;;;18.00;17.00;;;;;;;;3570407;39;113835;-79
2021/06/12 07:09:07;;;;;;;;;17.00;15.00;;;;;;;;3568823;39;112070;-80
2021/06/12 07:11:33;;;;;;;;;17.75;15.75;;;;;;;;3570483;39;113678;-81
2021/06/12 07:14:00;;;;;;;;;13.50;13.50;;;;;;;;3568130;39;114332;-80
2021/06/12 07:16:26;;;;;;;;;14.75;14.00;;;;;;;;3572766;39;111916;-79
2021/06/12 07:18:52;;;;;;;;;15.50;13.50;;;;;;;;3566555;39;113132;-77
2021/06/12 07:21:18;;;;;;;;;18.25;15.00;;;;;;;;3569922;39;111746;-77
2021/06/12 07:23:45;;;;;;;;;16.00;14.75;;;;;;;;3568665;39;113310;-79
2021/06/12 07:26:11;;;;;;;;;16.25;16.25;;;;;;;;3568503;39;113839;-76
2021/06/12 07:28:37;;;;;;;;;14.75;14.00;;;;;;;;3570204;39;111893;-80
2021/06/12 07:31:04;;;;;;;;;13.50;13.25;;;;;;;;3568684;39;113732;-80
2021/06/12 07:33:31;;;;;;;;;16.00;15.25;;;;;;;;3568364;39;114485;-74
2021/06/12 07:35:57;;;;;;;;;16.00;13.00;;;;;;;;3570368;39;111894;-76
2021/06/12 07:38:23;;;;;;;;;15.50;15.50;;;;;;;;3571329;39;113354;-75
2021/06/12 07:40:50;;;;;;;;;11.00;11.00;;;;;;;;3569668;39;111973;-78
2021/06/12 07:43:19;;;;;;;;;17.50;14.00;;;;;;;;3569981;39;113545;-76
2021/06/12 07:45:45;;;;;;;;;13.00;11.00;;;;;;;;3568722;39;113933;-77
2021/06/12 07:48:12;;;;;;;;;16.25;14.50;;;;;;;;3570128;39;112129;-84
2021/06/12 07:50:38;;;;;;;;;16.50;15.00;;;;;;;;3569100;39;113603;-78
2021/06/12 07:53:05;;;;;;;;;14.25;14.00;;;;;;;;3569799;39;113785;-79
2021/06/12 07:55:33;;;;;;;;;12.00;11.67;;;;;;;;3566732;39;112316;-82
2021/06/12 07:57:59;;;;;;;;;12.33;11.33;;;;;;;;3570764;39;113273;-81
2021/06/12 08:00:25;;;;;;;;;13.67;12.67;;;;;;;;3572901;39;114292;-79
2021/06/12 08:02:51;;;;;;;;;17.33;14.33;;;;;;;;3569034;39;113475;-80
2021/06/12 08:05:18;;;;;;;;;18.00;15.67;;;;;;;;3569023;39;113850;-77
2021/06/12 08:07:45;;;;;;;;;13.00;13.00;;;;;;;;3569260;39;113253;-75
2021/06/12 08:10:11;;;;;;;;;12.67;12.00;;;;;;;;3569048;39;113347;-77
2021/06/12 08:12:40;;;;;;;;;14.00;13.00;;;;;;;;3569205;39;113950;-77
2021/06/12 08:15:07;;;;;;;;;15.50;15.00;;;;;;;;3568462;39;112496;-75
2021/06/12 08:17:33;;;;;;;;;17.00;15.67;;;;;;;;3569921;39;113357;-79
2021/06/12 08:19:59;;;;;;;;;17.00;15.33;;;;;;;;3568101;39;113844;-76
2021/06/12 08:22:26;;;;;;;;;17.33;15.00;;;;;;;;3572735;39;111847;-76
2021/06/12 08:24:53;;;;;;;;;17.00;15.67;;;;;;;;3568619;39;113737;-75
2021/06/12 08:27:19;;;;;;;;;17.67;16.00;;;;;;;;3568405;39;112929;-74
2021/06/12 08:29:46;;;;;;;;;18.67;14.67;;;;;;;;3568260;39;113196;-74
2021/06/12 08:32:12;;;;;;;;;16.67;15.33;;;;;;;;3568413;39;114279;-74
2021/06/12 08:34:38;;;;;;;;;17.00;16.00;;;;;;;;3568114;39;111969;-74
2021/06/12 08:37:04;;;;;;;;;15.67;14.67;;;;;;;;3566515;39;113416;-75
2021/06/12 08:39:32;;;;;;;;;15.33;14.00;;;;;;;;3568778;39;113847;-75
2021/06/12 08:41:59;;;;;;;;;15.00;15.00;;;;;;;;3570634;39;112231;-75
2021/06/12 08:44:26;;;;;;;;;14.33;13.67;;;;;;;;3568988;39;113621;-75
2021/06/12 08:46:52;;;;;;;;;16.33;14.33;;;;;;;;3568131;39;111849;-75
2021/06/12 08:49:18;;;;;;;;;14.67;14.00;;;;;;;;3567103;39;113376;-75
2021/06/12 08:51:45;;;;;;;;;16.33;14.67;;;;;;;;3568382;39;113917;-75
2021/06/12 08:54:14;;;;;;;;;14.00;12.33;;;;;;;;3568617;39;111942;-75
2021/06/12 08:56:42;;;;;;;;;15.67;14.00;;;;;;;;3569184;39;113396;-75
2021/06/12 08:59:08;;;;;;;;;14.33;14.33;;;;;;;;3568153;39;113804;-75
2021/06/12 09:01:34;;;;;;;;;13.33;12.00;;;;;;;;3569684;39;112132;-75
2021/06/12 09:04:00;;;;;;;;;12.33;12.33;;;;;;;;3570516;39;113302;-75
2021/06/12 09:06:26;;;;;;;;;12.67;12.00;;;;;;;;3569922;39;112481;-75
2021/06/12 09:08:53;;;;;;;;;15.00;13.00;;;;;;;;3564860;39;112871;-75
2021/06/12 09:11:19;;;;;;;;;12.67;12.00;;;;;;;;3568748;39;113788;-75
2021/06/12 09:13:48;;;;;;;;;13.33;12.33;;;;;;;;3568926;39;111856;-75
2021/06/12 09:16:22;;;;;;;;;13.00;11.00;;;;;;;;3568757;39;113268;-76
2021/06/12 09:18:49;;;;;;;;;11.67;11.67;;;;;;;;3568159;39;114173;-76
2021/06/12 09:21:28;;;;;;;;;14.33;14.33;;;;;;;;3568987;39;112070;-74
2021/06/12 09:23:58;;;;;;;;;11.00;11.00;;;;;;;;3568222;39;113200;-74
2021/06/12 09:26:40;;;;;;;;;18.67;14.00;;;;;;;;3571930;39;114183;-75
2021/06/12 09:29:08;;;;;;;;;13.67;11.33;;;;;;;;3568363;39;113537;-76
2021/06/12 09:31:38;;;;;;;;;16.00;15.33;;;;;;;;3569119;39;114406;-74
2021/06/12 09:34:09;;;;;;;;;11.00;11.00;;;;;;;;3568148;39;111937;-76
2021/06/12 09:36:36;;;;;;;;;13.33;12.33;;;;;;;;3569215;39;113573;-76
2021/06/12 09:39:05;;;;;;;;;8.67;8.67;;;;;;;;3567542;39;114209;-75
2021/06/12 09:41:31;;;;;;;;;11.00;11.00;;;;;;;;3569708;39;112836;-76
2021/06/12 09:43:57;;;;;;;;;12.00;12.00;;;;;;;;3567972;39;113747;-74
2021/06/12 09:46:31;;;;;;;;;11.00;11.00;;;;;;;;3568971;39;113933;-75
2021/06/12 09:48:57;;;;;;;;;11.00;9.00;;;;;;;;3568381;39;112591;-75
2021/06/12 09:51:23;;;;;;;;;9.67;8.67;;;;;;;;3568888;39;114002;-75
2021/06/12 09:53:50;;;;;;;;;13.33;11.00;;;;;;;;3568042;39;112111;-76
2021/06/12 09:56:16;;;;;;;;;10.00;9.00;;;;;;;;3568895;39;113424;-75
2021/06/12 09:58:42;;;;;;;;;8.00;6.00;;;;;;;;3568148;39;113637;-75
2021/06/12 10:01:09;;;;;;;;;11.00;11.00;;;;;;;;3568187;39;112243;-75
2021/06/12 10:03:37;;;;;;;;;11.00;10.00;;;;;;;;3569265;39;113252;-75
2021/06/12 10:06:10;;;;;;;;;11.00;8.00;;;;;;;;3567205;39;113813;-75
2021/06/12 10:08:36;;;;;;;;;10.00;9.67;;;;;;;;3568999;39;112509;-75
2021/06/12 10:11:02;;;;;;;;;7.33;7.33;;;;;;;;3569931;39;113340;-75
2021/06/12 10:13:28;;;;;;;;;13.67;11.67;;;;;;;;3567698;39;111761;-75
2021/06/12 10:15:55;;;;;;;;;8.33;8.33;;;;;;;;3569155;39;113313;-75
2021/06/12 10:18:21;;;;;;;;;12.00;9.00;;;;;;;;3567613;39;113759;-75
2021/06/12 10:20:49;;;;;;;;;18.00;16.67;;;;;;;;3568554;39;111939;-75
2021/06/12 10:23:16;;;;;;;;;12.00;11.00;;;;;;;;3568737;39;113475;-75
2021/06/12 10:25:42;;;;;;;;;8.00;8.00;;;;;;;;3567628;39;113697;-75
2021/06/12 10:28:09;;;;;;;;;15.00;12.33;;;;;;;;3568984;39;112907;-75
2021/06/12 10:30:36;;;;;;;;;9.67;9.67;;;;;;;;3567625;39;113501;-75
2021/06/12 10:33:02;;;;;;;;;9.33;9.33;;;;;;;;3571231;39;112393;-75
2021/06/12 10:35:29;;;;;;;;;9.67;8.67;;;;;;;;3567414;39;113203;-76
2021/06/12 10:38:00;;;;;;;;;6.67;6.67;;;;;;;;3567293;39;113611;-76
2021/06/12 10:40:37;;;;;;;;;8.00;8.00;;;;;;;;3569173;39;111918;-77
2021/06/12 10:43:06;;;;;;;;;12.00;11.67;;;;;;;;3567621;39;113191;-77
2021/06/12 10:45:32;;;;;;;;;8.00;8.00;;;;;;;;3567935;39;114337;-75
2021/06/12 10:47:58;;;;;;;;;9.67;9.33;;;;;;;;3569056;39;113036;-73
2021/06/12 10:50:32;;;;;;;;;9.00;9.00;;;;;;;;3567451;39;113184;-76
2021/06/12 10:55:43;;;;;;;;;8.33;7.00;;;;;;;;4330874;22;114370;-77
2021/06/12 10:58:28;;;;;;;;;8.00;8.00;;;;;;;;3530745;39;113327;-77
2021/06/12 11:01:12;;;;;;;;;12.67;10.67;;;;;;;;3532491;39;111736;-76
2021/06/12 11:03:42;;;;;;;;;9.00;8.00;;;;;;;;3532886;39;113493;-76
2021/06/12 11:06:36;;;;;;;;;7.33;7.00;;;;;;;;3532105;39;113791;-83
2021/06/12 11:09:21;;;;;;;;;8.00;8.00;;;;;;;;3534469;39;112038;-84
2021/06/12 11:11:49;;;;;;;;;10.00;8.00;;;;;;;;3533543;39;112246;-83
2021/06/12 11:14:24;;;;;;;;;7.33;7.33;;;;;;;;3532203;39;114337;-83
2021/06/12 11:17:05;;;;;;;;;8.00;7.00;;;;;;;;3533013;39;112424;-80
2021/06/12 11:19:32;;;;;;;;;8.33;8.33;;;;;;;;3530894;39;114127;-77
2021/06/12 11:22:16;;;;;;;;;12.00;10.33;;;;;;;;3533354;39;111753;-80
2021/06/12 11:24:43;;;;;;;;;10.33;9.00;;;;;;;;3532815;39;113303;-81
2021/06/12 11:27:23;;;;;;;;;8.67;6.00;;;;;;;;3534145;39;113842;-81
2021/06/12 11:30:07;;;;;;;;;5.00;5.00;;;;;;;;3530163;39;112106;-80
2021/06/12 11:32:34;;;;;;;;;8.00;8.00;;;;;;;;3523801;39;112701;-79
2021/06/12 11:35:00;;;;;;;;;10.00;9.33;;;;;;;;3533522;39;113785;-77
2021/06/12 11:37:27;;;;;;;;;10.00;8.67;;;;;;;;3534375;39;112422;-76
2021/06/12 11:39:55;;;;;;;;;9.00;9.00;;;;;;;;3536500;39;113329;-78
2021/06/12 11:42:22;;;;;;;;;8.33;8.33;;;;;;;;3534298;39;111816;-79
2021/06/12 11:44:48;;;;;;;;;12.00;8.67;;;;;;;;3534119;39;114114;-81
2021/06/12 11:47:25;;;;;;;;;8.00;8.00;;;;;;;;3534198;39;114300;-87
2021/06/12 11:49:51;;;;;;;;;9.67;8.67;;;;;;;;3535055;39;111900;-87
2021/06/12 11:52:17;;;;;;;;;11.00;11.00;;;;;;;;3534484;39;113610;-86
2021/06/12 11:54:43;;;;;;;;;60.50;45.50;;;;;;;;3534381;39;113864;-81
2021/06/12 11:57:10;;;;;;;;;15.33;15.33;;;;;;;;3532665;39;111771;-87
2021/06/12 11:59:37;;;;;;;;;22.33;19.00;;;;;;;;3535737;39;113466;-86
2021/06/12 12:02:05;;;;;;;;;6.33;6.33;;;;;;;;3536974;39;113310;-83
2021/06/12 12:04:35;;;;;;;;;10.00;10.00;;;;;;;;3531381;39;112761;-88
2021/06/12 12:07:04;;;;;;;;;9.00;9.00;;;;;;;;3533771;39;113656;-80
2021/06/12 12:09:30;;;;;;;;;19.00;16.67;;;;;;;;3534001;39;112040;-82
2021/06/12 12:11:57;;;;;;;;;21.00;18.33;;;;;;;;3532553;39;113422;-79
2021/06/12 12:14:28;;;;;;;;;14.00;12.67;;;;;;;;3533492;39;113895;-81
2021/06/12 12:16:55;;;;;;;;;15.67;15.67;;;;;;;;3534045;39;112457;-78
2021/06/12 12:19:22;;;;;;;;;13.00;12.00;;;;;;;;3534001;39;113747;-76
2021/06/12 12:21:49;;;;;;;;;11.00;9.33;;;;;;;;3533555;39;113887;-76
2021/06/12 12:24:15;;;;;;;;;17.67;17.33;;;;;;;;3531523;39;111966;-75
2021/06/12 12:26:51;;;;;;;;;16.00;14.00;;;;;;;;3533581;39;113898;-75
2021/06/12 12:29:18;;;;;;;;;15.67;14.00;;;;;;;;3532464;39;112332;-79
2021/06/12 12:31:45;;;;;;;;;8.33;8.00;;;;;;;;3534367;39;113370;-77
2021/06/12 12:34:14;;;;;;;;;8.33;8.33;;;;;;;;3532194;39;113977;-77
2021/06/12 12:36:44;;;;;;;;;8.67;8.67;;;;;;;;3532035;39;111846;-76
2021/06/12 12:39:10;;;;;;;;;14.00;12.67;;;;;;;;3531979;39;113669;-80
2021/06/12 12:41:38;;;;;;;;;10.00;9.00;;;;;;;;3533713;39;114660;-83
2021/06/12 12:44:09;;;;;;;;;13.33;12.00;;;;;;;;3536485;39;112105;-78
2021/06/12 12:46:36;;;;;;;;;7.00;7.00;;;;;;;;3533853;39;113939;-78
2021/06/12 12:49:02;;;;;;;;;9.00;9.00;;;;;;;;3534112;39;111808;-74
2021/06/12 12:51:30;;;;;;;;;14.33;12.00;;;;;;;;3534283;39;115379;-80
2021/06/12 12:54:08;;;;;;;;;9.33;9.33;;;;;;;;3533653;39;113903;-81
2021/06/12 12:56:42;;;;;;;;;13.67;12.67;;;;;;;;3534659;39;112474;-82
2021/06/12 12:59:08;;;;;;;;;9.67;7.33;;;;;;;;3534600;39;113194;-84
2021/06/12 13:01:34;;;;;;;;;11.00;9.00;;;;;;;;3535296;39;114002;-89
2021/06/12 13:04:00;;;;;;;;;14.67;13.33;;;;;;;;3534837;39;112229;-78
2021/06/12 13:06:32;;;;;;;;;8.33;7.00;;;;;;;;3536546;39;113663;-83
2021/06/12 13:09:11;;;;;;;;;9.00;9.00;;;;;;;;3535561;39;111845;-88
2021/06/12 13:11:45;;;;;;;;;14.67;10.00;;;;;;;;3534742;39;113276;-78
2021/06/12 13:14:22;;;;;;;;;10.00;9.00;;;;;;;;3532451;39;113958;-78
2021/06/12 13:16:55;;;;;;;;;11.33;11.33;;;;;;;;3532439;39;112415;-78
2021/06/12 13:19:29;;;;;;;;;14.33;12.67;;;;;;;;3532588;39;113241;-75
2021/06/12 13:21:56;;;;;;;;;32.50;29.75;;;;;;;;3533623;39;113780;-75
2021/06/12 13:24:22;;;;;;;;;7.33;7.00;;;;;;;;3533441;39;112040;-75
2021/06/12 13:26:48;;;;;;;;;11.67;11.67;;;;;;;;3533351;39;113312;-75
2021/06/12 13:29:19;;;;;;;;;41.75;33.00;;;;;;;;3535781;39;114188;-77
2021/06/12 13:31:47;;;;;;;;;37.67;30.67;;;;;;;;3531996;39;113267;-76
2021/06/12 13:34:27;;;;;;;;;20.33;19.00;;;;;;;;3532871;39;113954;-75
2021/06/12 13:36:55;;;;;;;;;54.50;43.75;;;;;;;;3533125;39;111899;-75
2021/06/12 13:39:32;;;;;;;;;21.67;18.67;;;;;;;;3533320;39;113540;-75
2021/06/12 13:42:05;;;;;;;;;78.50;67.00;;;;;;;;3532561;39;113987;-75
2021/06/12 13:44:31;;;;;;;;;38.50;30.75;;;;;;;;3532361;39;111958;-76
2021/06/12 13:46:57;;;;;;;;;13.00;12.33;;;;;;;;3533172;39;113413;-73
2021/06/12 13:49:24;;;;;;;;;18.75;17.00;;;;;;;;3532730;39;114004;-75
2021/06/12 13:51:50;;;;;;;;;10.33;10.33;;;;;;;;3535901;39;111837;-74
2021/06/12 13:54:16;;;;;;;;;47.75;37.50;;;;;;;;3532514;39;113914;-75
2021/06/12 13:56:45;;;;;;;;;29.75;25.50;;;;;;;;3533197;39;111942;-76
2021/06/12 13:59:11;;;;;;;;;48.00;39.25;;;;;;;;3531630;39;113759;-78
2021/06/12 14:01:38;;;;;;;;;11.00;11.00;;;;;;;;3532426;39;113813;-79
2021/06/12 14:04:04;;;;;;;;;9.67;9.67;;;;;;;;3531884;39;112101;-80
2021/06/12 14:06:30;;;;;;;;;8.33;7.00;;;;;;;;3531558;39;113932;-79
2021/06/12 14:08:56;;;;;;;;;13.00;12.00;;;;;;;;3530205;39;114241;-80
2021/06/12 14:11:22;;;;;;;;;60.75;45.75;;;;;;;;3532059;39;111964;-80
2021/06/12 14:13:50;;;;;;;;;124.00;108.67;;;;;;;;3534347;39;113372;-79
2021/06/12 14:16:16;;;;;;;;;73.25;61.75;;;;;;;;3531604;39;112004;-79